sensor_id;sensor_type;location;lat;lon;timestamp;P1;durP1;ratioP1;P2;durP2;ratioP2
30370;SDS011;17164;48.590;11.410;2023-05-07T00:00:37;3.00;;;1.77;;
30370;SDS011;17164;48.590;11.410;2023-05-07T00:03:03;2.63;;;1.70;;
30370;SDS011;17164;48.590;11.410;2023-05-07T00:05:28;2.03;;;1.50;;
30370;SDS011;17164;48.590;11.410;2023-05-07T00:07:54;2.73;;;1.57;;
30370;SDS011;17164;48.590;11.410;2023-05-07T00:10:20;3.37;;;1.50;;
30370;SDS011;17164;48.590;11.410;2023-05-07T00:12:46;5.50;;;1.77;;
30370;SDS011;17164;48.590;11.410;2023-05-07T00:15:11;5.63;;;1.80;;
30370;SDS011;17164;48.590;11.410;2023-05-07T00:17:37;2.63;;;1.70;;
30370;SDS011;17164;48.590;11.410;2023-05-07T00:20:03;2.33;;;1.90;;
30370;SDS011;17164;48.590;11.410;2023-05-07T00:22:30;6.30;;;1.63;;
30370;SDS011;17164;48.590;11.410;2023-05-07T00:24:57;2.53;;;1.50;;
30370;SDS011;17164;48.590;11.410;2023-05-07T00:27:23;2.20;;;1.57;;
30370;SDS011;17164;48.590;11.410;2023-05-07T00:29:49;2.60;;;1.60;;
30370;SDS011;17164;48.590;11.410;2023-05-07T00:32:15;3.53;;;1.63;;
30370;SDS011;17164;48.590;11.410;2023-05-07T00:34:40;2.40;;;1.50;;
30370;SDS011;17164;48.590;11.410;2023-05-07T00:37:06;3.67;;;1.73;;
30370;SDS011;17164;48.590;11.410;2023-05-07T00:39:34;5.87;;;1.70;;
30370;SDS011;17164;48.590;11.410;2023-05-07T00:42:00;2.27;;;1.40;;
30370;SDS011;17164;48.590;11.410;2023-05-07T00:44:27;2.97;;;1.47;;
30370;SDS011;17164;48.590;11.410;2023-05-07T00:46:53;2.90;;;1.53;;
30370;SDS011;17164;48.590;11.410;2023-05-07T00:49:19;3.93;;;1.40;;
30370;SDS011;17164;48.590;11.410;2023-05-07T00:51:45;2.40;;;1.70;;
30370;SDS011;17164;48.590;11.410;2023-05-07T00:54:12;1.93;;;1.43;;
30370;SDS011;17164;48.590;11.410;2023-05-07T00:56:38;3.00;;;1.83;;
30370;SDS011;17164;48.590;11.410;2023-05-07T00:59:05;3.33;;;1.80;;
30370;SDS011;17164;48.590;11.410;2023-05-07T01:01:31;4.73;;;1.50;;
30370;SDS011;17164;48.590;11.410;2023-05-07T01:03:57;2.33;;;1.70;;
30370;SDS011;17164;48.590;11.410;2023-05-07T01:06:23;2.20;;;1.40;;
30370;SDS011;17164;48.590;11.410;2023-05-07T01:08:50;4.47;;;2.00;;
30370;SDS011;17164;48.590;11.410;2023-05-07T01:11:17;4.90;;;1.97;;
30370;SDS011;17164;48.590;11.410;2023-05-07T01:13:45;2.53;;;1.80;;
30370;SDS011;17164;48.590;11.410;2023-05-07T01:16:12;2.77;;;1.60;;
30370;SDS011;17164;48.590;11.410;2023-05-07T01:18:37;4.30;;;1.80;;
30370;SDS011;17164;48.590;11.410;2023-05-07T01:21:03;2.90;;;1.77;;
30370;SDS011;17164;48.590;11.410;2023-05-07T01:23:30;8.27;;;2.13;;
30370;SDS011;17164;48.590;11.410;2023-05-07T01:25:56;3.93;;;1.97;;
30370;SDS011;17164;48.590;11.410;2023-05-07T01:28:21;3.03;;;1.63;;
30370;SDS011;17164;48.590;11.410;2023-05-07T01:30:48;3.97;;;1.80;;
30370;SDS011;17164;48.590;11.410;2023-05-07T01:33:18;3.70;;;2.00;;
30370;SDS011;17164;48.590;11.410;2023-05-07T01:35:47;2.80;;;1.97;;
30370;SDS011;17164;48.590;11.410;2023-05-07T01:38:15;2.73;;;1.97;;
30370;SDS011;17164;48.590;11.410;2023-05-07T01:40:43;3.17;;;1.83;;
30370;SDS011;17164;48.590;11.410;2023-05-07T01:43:09;3.23;;;1.93;;
30370;SDS011;17164;48.590;11.410;2023-05-07T01:45:35;3.77;;;1.70;;
30370;SDS011;17164;48.590;11.410;2023-05-07T01:48:01;5.40;;;1.90;;
30370;SDS011;17164;48.590;11.410;2023-05-07T01:50:27;4.87;;;2.13;;
30370;SDS011;17164;48.590;11.410;2023-05-07T01:52:54;3.73;;;2.00;;
30370;SDS011;17164;48.590;11.410;2023-05-07T01:55:20;5.23;;;1.80;;
30370;SDS011;17164;48.590;11.410;2023-05-07T01:57:46;2.93;;;1.80;;
30370;SDS011;17164;48.590;11.410;2023-05-07T02:00:12;2.53;;;1.63;;
30370;SDS011;17164;48.590;11.410;2023-05-07T02:02:38;4.60;;;1.53;;
30370;SDS011;17164;48.590;11.410;2023-05-07T02:05:04;3.00;;;1.53;;
30370;SDS011;17164;48.590;11.410;2023-05-07T02:07:30;3.07;;;1.80;;
30370;SDS011;17164;48.590;11.410;2023-05-07T02:09:55;7.30;;;2.00;;
30370;SDS011;17164;48.590;11.410;2023-05-07T02:12:21;2.70;;;1.73;;
30370;SDS011;17164;48.590;11.410;2023-05-07T02:14:47;4.00;;;1.67;;
30370;SDS011;17164;48.590;11.410;2023-05-07T02:17:13;2.47;;;1.67;;
30370;SDS011;17164;48.590;11.410;2023-05-07T02:19:39;3.80;;;1.77;;
30370;SDS011;17164;48.590;11.410;2023-05-07T02:22:04;3.97;;;1.77;;
30370;SDS011;17164;48.590;11.410;2023-05-07T02:24:30;2.90;;;1.70;;
30370;SDS011;17164;48.590;11.410;2023-05-07T02:26:55;3.70;;;1.80;;
30370;SDS011;17164;48.590;11.410;2023-05-07T02:29:21;3.17;;;1.77;;
30370;SDS011;17164;48.590;11.410;2023-05-07T02:31:47;2.87;;;1.90;;
30370;SDS011;17164;48.590;11.410;2023-05-07T02:34:15;2.73;;;1.50;;
30370;SDS011;17164;48.590;11.410;2023-05-07T02:36:41;3.73;;;2.53;;
30370;SDS011;17164;48.590;11.410;2023-05-07T02:39:07;2.30;;;1.80;;
30370;SDS011;17164;48.590;11.410;2023-05-07T02:41:33;2.23;;;1.60;;
30370;SDS011;17164;48.590;11.410;2023-05-07T02:43:58;2.03;;;1.70;;
30370;SDS011;17164;48.590;11.410;2023-05-07T02:46:24;3.17;;;1.83;;
30370;SDS011;17164;48.590;11.410;2023-05-07T02:48:50;2.80;;;1.70;;
30370;SDS011;17164;48.590;11.410;2023-05-07T02:51:17;1.40;;;1.30;;
30370;SDS011;17164;48.590;11.410;2023-05-07T02:53:44;4.83;;;1.83;;
30370;SDS011;17164;48.590;11.410;2023-05-07T02:56:10;2.40;;;1.77;;
30370;SDS011;17164;48.590;11.410;2023-05-07T02:58:36;4.63;;;1.83;;
30370;SDS011;17164;48.590;11.410;2023-05-07T03:01:04;3.13;;;1.90;;
30370;SDS011;17164;48.590;11.410;2023-05-07T03:03:30;3.87;;;1.80;;
30370;SDS011;17164;48.590;11.410;2023-05-07T03:05:56;3.57;;;2.20;;
30370;SDS011;17164;48.590;11.410;2023-05-07T03:08:21;4.40;;;2.17;;
30370;SDS011;17164;48.590;11.410;2023-05-07T03:10:47;4.97;;;2.20;;
30370;SDS011;17164;48.590;11.410;2023-05-07T03:13:13;3.70;;;1.97;;
30370;SDS011;17164;48.590;11.410;2023-05-07T03:15:39;3.17;;;2.17;;
30370;SDS011;17164;48.590;11.410;2023-05-07T03:18:04;3.67;;;2.40;;
30370;SDS011;17164;48.590;11.410;2023-05-07T03:20:30;3.47;;;2.37;;
30370;SDS011;17164;48.590;11.410;2023-05-07T03:22:56;5.40;;;2.60;;
30370;SDS011;17164;48.590;11.410;2023-05-07T03:25:22;4.73;;;2.53;;
30370;SDS011;17164;48.590;11.410;2023-05-07T03:27:47;5.13;;;2.60;;
30370;SDS011;17164;48.590;11.410;2023-05-07T03:30:13;3.23;;;2.60;;
30370;SDS011;17164;48.590;11.410;2023-05-07T03:32:38;5.60;;;2.80;;
30370;SDS011;17164;48.590;11.410;2023-05-07T03:35:04;4.20;;;2.37;;
30370;SDS011;17164;48.590;11.410;2023-05-07T03:37:30;4.30;;;2.87;;
30370;SDS011;17164;48.590;11.410;2023-05-07T03:39:56;5.13;;;2.40;;
30370;SDS011;17164;48.590;11.410;2023-05-07T03:42:21;7.13;;;3.73;;
30370;SDS011;17164;48.590;11.410;2023-05-07T03:44:47;3.77;;;2.53;;
30370;SDS011;17164;48.590;11.410;2023-05-07T03:47:13;4.03;;;2.00;;
30370;SDS011;17164;48.590;11.410;2023-05-07T03:49:39;3.60;;;1.70;;
30370;SDS011;17164;48.590;11.410;2023-05-07T03:52:05;2.20;;;1.70;;
30370;SDS011;17164;48.590;11.410;2023-05-07T03:54:30;2.80;;;1.50;;
30370;SDS011;17164;48.590;11.410;2023-05-07T03:56:56;4.00;;;2.30;;
30370;SDS011;17164;48.590;11.410;2023-05-07T03:59:22;3.77;;;1.93;;
30370;SDS011;17164;48.590;11.410;2023-05-07T04:01:47;3.10;;;2.10;;
30370;SDS011;17164;48.590;11.410;2023-05-07T04:04:16;3.63;;;1.80;;
30370;SDS011;17164;48.590;11.410;2023-05-07T04:06:42;5.43;;;2.07;;
30370;SDS011;17164;48.590;11.410;2023-05-07T04:09:07;3.67;;;2.30;;
30370;SDS011;17164;48.590;11.410;2023-05-07T04:11:33;4.00;;;1.97;;
30370;SDS011;17164;48.590;11.410;2023-05-07T04:14:00;7.13;;;1.87;;
30370;SDS011;17164;48.590;11.410;2023-05-07T04:16:25;4.40;;;2.00;;
30370;SDS011;17164;48.590;11.410;2023-05-07T04:18:51;4.03;;;1.97;;
30370;SDS011;17164;48.590;11.410;2023-05-07T04:21:17;5.07;;;1.93;;
30370;SDS011;17164;48.590;11.410;2023-05-07T04:23:44;3.73;;;2.40;;
30370;SDS011;17164;48.590;11.410;2023-05-07T04:26:11;2.73;;;2.23;;
30370;SDS011;17164;48.590;11.410;2023-05-07T04:28:36;3.00;;;2.30;;
30370;SDS011;17164;48.590;11.410;2023-05-07T04:31:03;3.27;;;2.37;;
30370;SDS011;17164;48.590;11.410;2023-05-07T04:33:28;3.30;;;2.10;;
30370;SDS011;17164;48.590;11.410;2023-05-07T04:35:54;8.80;;;2.50;;
30370;SDS011;17164;48.590;11.410;2023-05-07T04:38:20;4.83;;;2.80;;
30370;SDS011;17164;48.590;11.410;2023-05-07T04:40:45;7.43;;;3.07;;
30370;SDS011;17164;48.590;11.410;2023-05-07T04:43:11;5.17;;;3.37;;
30370;SDS011;17164;48.590;11.410;2023-05-07T04:45:38;6.13;;;3.80;;
30370;SDS011;17164;48.590;11.410;2023-05-07T04:48:06;6.10;;;3.50;;
30370;SDS011;17164;48.590;11.410;2023-05-07T04:50:32;6.33;;;2.83;;
30370;SDS011;17164;48.590;11.410;2023-05-07T04:52:58;4.17;;;2.40;;
30370;SDS011;17164;48.590;11.410;2023-05-07T04:55:23;6.13;;;2.90;;
30370;SDS011;17164;48.590;11.410;2023-05-07T04:57:49;3.63;;;2.87;;
30370;SDS011;17164;48.590;11.410;2023-05-07T05:00:15;4.17;;;2.40;;
30370;SDS011;17164;48.590;11.410;2023-05-07T05:02:41;4.40;;;2.70;;
30370;SDS011;17164;48.590;11.410;2023-05-07T05:05:07;3.93;;;2.83;;
30370;SDS011;17164;48.590;11.410;2023-05-07T05:07:33;3.00;;;2.20;;
30370;SDS011;17164;48.590;11.410;2023-05-07T05:09:58;6.97;;;3.10;;
30370;SDS011;17164;48.590;11.410;2023-05-07T05:12:24;4.37;;;3.17;;
30370;SDS011;17164;48.590;11.410;2023-05-07T05:14:50;7.43;;;3.17;;
30370;SDS011;17164;48.590;11.410;2023-05-07T05:17:16;5.90;;;2.90;;
30370;SDS011;17164;48.590;11.410;2023-05-07T05:19:41;4.87;;;3.17;;
30370;SDS011;17164;48.590;11.410;2023-05-07T05:22:07;8.33;;;3.40;;
30370;SDS011;17164;48.590;11.410;2023-05-07T05:24:32;5.63;;;2.93;;
30370;SDS011;17164;48.590;11.410;2023-05-07T05:26:58;6.53;;;3.20;;
30370;SDS011;17164;48.590;11.410;2023-05-07T05:29:27;5.13;;;3.30;;
30370;SDS011;17164;48.590;11.410;2023-05-07T05:31:52;6.00;;;3.63;;
30370;SDS011;17164;48.590;11.410;2023-05-07T05:34:18;6.13;;;3.60;;
30370;SDS011;17164;48.590;11.410;2023-05-07T05:36:44;6.90;;;3.73;;
30370;SDS011;17164;48.590;11.410;2023-05-07T05:39:10;4.93;;;3.80;;
30370;SDS011;17164;48.590;11.410;2023-05-07T05:41:36;6.27;;;4.17;;
30370;SDS011;17164;48.590;11.410;2023-05-07T05:44:01;5.67;;;3.77;;
30370;SDS011;17164;48.590;11.410;2023-05-07T05:46:27;6.53;;;4.23;;
30370;SDS011;17164;48.590;11.410;2023-05-07T05:48:53;4.83;;;3.50;;
30370;SDS011;17164;48.590;11.410;2023-05-07T05:51:18;5.27;;;3.57;;
30370;SDS011;17164;48.590;11.410;2023-05-07T05:53:45;4.63;;;3.70;;
30370;SDS011;17164;48.590;11.410;2023-05-07T05:56:11;6.30;;;3.73;;
30370;SDS011;17164;48.590;11.410;2023-05-07T05:58:36;6.70;;;3.60;;
30370;SDS011;17164;48.590;11.410;2023-05-07T06:01:02;7.70;;;4.10;;
30370;SDS011;17164;48.590;11.410;2023-05-07T06:03:28;6.10;;;3.50;;
30370;SDS011;17164;48.590;11.410;2023-05-07T06:05:53;8.57;;;4.00;;
30370;SDS011;17164;48.590;11.410;2023-05-07T06:08:19;4.53;;;3.70;;
30370;SDS011;17164;48.590;11.410;2023-05-07T06:10:45;6.33;;;3.60;;
30370;SDS011;17164;48.590;11.410;2023-05-07T06:13:10;8.90;;;4.00;;
30370;SDS011;17164;48.590;11.410;2023-05-07T06:15:36;5.37;;;3.57;;
30370;SDS011;17164;48.590;11.410;2023-05-07T06:18:02;5.23;;;3.90;;
30370;SDS011;17164;48.590;11.410;2023-05-07T06:20:27;5.60;;;3.43;;
30370;SDS011;17164;48.590;11.410;2023-05-07T06:22:53;5.53;;;3.57;;
30370;SDS011;17164;48.590;11.410;2023-05-07T06:25:18;6.53;;;3.63;;
30370;SDS011;17164;48.590;11.410;2023-05-07T06:27:44;5.93;;;3.53;;
30370;SDS011;17164;48.590;11.410;2023-05-07T06:30:10;5.97;;;3.67;;
30370;SDS011;17164;48.590;11.410;2023-05-07T06:32:36;5.67;;;3.93;;
30370;SDS011;17164;48.590;11.410;2023-05-07T06:35:02;6.13;;;3.87;;
30370;SDS011;17164;48.590;11.410;2023-05-07T06:37:27;5.27;;;3.97;;
30370;SDS011;17164;48.590;11.410;2023-05-07T06:39:53;6.83;;;3.97;;
30370;SDS011;17164;48.590;11.410;2023-05-07T06:42:19;5.37;;;3.47;;
30370;SDS011;17164;48.590;11.410;2023-05-07T06:44:44;5.33;;;4.07;;
30370;SDS011;17164;48.590;11.410;2023-05-07T06:47:10;4.97;;;3.30;;
30370;SDS011;17164;48.590;11.410;2023-05-07T06:49:36;4.67;;;3.80;;
30370;SDS011;17164;48.590;11.410;2023-05-07T06:52:01;7.83;;;4.00;;
30370;SDS011;17164;48.590;11.410;2023-05-07T06:54:28;11.87;;;7.53;;
30370;SDS011;17164;48.590;11.410;2023-05-07T06:56:54;6.50;;;4.10;;
30370;SDS011;17164;48.590;11.410;2023-05-07T06:59:20;5.13;;;3.80;;
30370;SDS011;17164;48.590;11.410;2023-05-07T07:01:45;5.93;;;3.60;;
30370;SDS011;17164;48.590;11.410;2023-05-07T07:04:11;6.83;;;3.53;;
30370;SDS011;17164;48.590;11.410;2023-05-07T07:06:36;5.27;;;3.57;;
30370;SDS011;17164;48.590;11.410;2023-05-07T07:09:02;4.97;;;3.57;;
30370;SDS011;17164;48.590;11.410;2023-05-07T07:11:27;4.40;;;3.40;;
30370;SDS011;17164;48.590;11.410;2023-05-07T07:13:53;5.50;;;3.80;;
30370;SDS011;17164;48.590;11.410;2023-05-07T07:16:19;6.27;;;4.17;;
30370;SDS011;17164;48.590;11.410;2023-05-07T07:18:46;8.87;;;4.17;;
30370;SDS011;17164;48.590;11.410;2023-05-07T07:21:12;6.50;;;3.90;;
30370;SDS011;17164;48.590;11.410;2023-05-07T07:23:37;4.77;;;3.90;;
30370;SDS011;17164;48.590;11.410;2023-05-07T07:26:03;8.23;;;3.90;;
30370;SDS011;17164;48.590;11.410;2023-05-07T07:28:28;7.90;;;4.17;;
30370;SDS011;17164;48.590;11.410;2023-05-07T07:30:54;6.97;;;3.47;;
30370;SDS011;17164;48.590;11.410;2023-05-07T07:33:20;6.53;;;4.03;;
30370;SDS011;17164;48.590;11.410;2023-05-07T07:35:45;8.37;;;3.93;;
30370;SDS011;17164;48.590;11.410;2023-05-07T07:38:11;5.33;;;3.70;;
30370;SDS011;17164;48.590;11.410;2023-05-07T07:40:36;6.23;;;3.90;;
30370;SDS011;17164;48.590;11.410;2023-05-07T07:43:02;4.13;;;3.33;;
30370;SDS011;17164;48.590;11.410;2023-05-07T07:45:28;7.47;;;3.70;;
30370;SDS011;17164;48.590;11.410;2023-05-07T07:47:54;7.03;;;3.90;;
30370;SDS011;17164;48.590;11.410;2023-05-07T07:50:19;6.27;;;3.63;;
30370;SDS011;17164;48.590;11.410;2023-05-07T07:52:45;4.70;;;3.50;;
30370;SDS011;17164;48.590;11.410;2023-05-07T07:55:11;5.37;;;3.90;;
30370;SDS011;17164;48.590;11.410;2023-05-07T07:57:37;4.57;;;3.60;;
30370;SDS011;17164;48.590;11.410;2023-05-07T08:00:03;5.97;;;4.03;;
30370;SDS011;17164;48.590;11.410;2023-05-07T08:02:29;5.77;;;3.27;;
30370;SDS011;17164;48.590;11.410;2023-05-07T08:04:55;7.60;;;3.40;;
30370;SDS011;17164;48.590;11.410;2023-05-07T08:07:21;6.17;;;3.70;;
30370;SDS011;17164;48.590;11.410;2023-05-07T08:09:47;7.50;;;3.73;;
30370;SDS011;17164;48.590;11.410;2023-05-07T08:12:13;5.00;;;3.60;;
30370;SDS011;17164;48.590;11.410;2023-05-07T08:14:39;5.67;;;3.37;;
30370;SDS011;17164;48.590;11.410;2023-05-07T08:17:05;7.57;;;3.93;;
30370;SDS011;17164;48.590;11.410;2023-05-07T08:19:31;6.10;;;3.17;;
30370;SDS011;17164;48.590;11.410;2023-05-07T08:21:57;5.87;;;3.97;;
30370;SDS011;17164;48.590;11.410;2023-05-07T08:24:22;7.40;;;3.53;;
30370;SDS011;17164;48.590;11.410;2023-05-07T08:26:48;6.23;;;4.03;;
30370;SDS011;17164;48.590;11.410;2023-05-07T08:29:14;7.97;;;3.40;;
30370;SDS011;17164;48.590;11.410;2023-05-07T08:31:40;5.27;;;3.57;;
30370;SDS011;17164;48.590;11.410;2023-05-07T08:34:06;6.27;;;3.70;;
30370;SDS011;17164;48.590;11.410;2023-05-07T08:36:32;5.77;;;3.93;;
30370;SDS011;17164;48.590;11.410;2023-05-07T08:38:57;4.93;;;3.47;;
30370;SDS011;17164;48.590;11.410;2023-05-07T08:41:24;4.07;;;3.13;;
30370;SDS011;17164;48.590;11.410;2023-05-07T08:43:50;6.43;;;3.70;;
30370;SDS011;17164;48.590;11.410;2023-05-07T08:46:19;5.67;;;3.23;;
30370;SDS011;17164;48.590;11.410;2023-05-07T08:48:49;6.07;;;3.70;;
30370;SDS011;17164;48.590;11.410;2023-05-07T08:51:16;4.87;;;3.73;;
30370;SDS011;17164;48.590;11.410;2023-05-07T08:53:44;4.80;;;3.13;;
30370;SDS011;17164;48.590;11.410;2023-05-07T08:56:11;7.43;;;3.57;;
30370;SDS011;17164;48.590;11.410;2023-05-07T08:58:37;3.73;;;2.63;;
30370;SDS011;17164;48.590;11.410;2023-05-07T09:01:09;4.43;;;2.70;;
30370;SDS011;17164;48.590;11.410;2023-05-07T09:03:39;4.53;;;2.97;;
30370;SDS011;17164;48.590;11.410;2023-05-07T09:06:05;4.57;;;3.27;;
30370;SDS011;17164;48.590;11.410;2023-05-07T09:08:32;3.60;;;2.90;;
30370;SDS011;17164;48.590;11.410;2023-05-07T09:10:58;4.27;;;2.70;;
30370;SDS011;17164;48.590;11.410;2023-05-07T09:13:24;4.73;;;3.20;;
30370;SDS011;17164;48.590;11.410;2023-05-07T09:15:50;5.43;;;2.83;;
30370;SDS011;17164;48.590;11.410;2023-05-07T09:18:16;4.83;;;2.80;;
30370;SDS011;17164;48.590;11.410;2023-05-07T09:20:41;3.00;;;2.03;;
30370;SDS011;17164;48.590;11.410;2023-05-07T09:23:07;4.87;;;2.17;;
30370;SDS011;17164;48.590;11.410;2023-05-07T09:25:34;3.37;;;1.77;;
30370;SDS011;17164;48.590;11.410;2023-05-07T09:28:01;4.37;;;1.93;;
30370;SDS011;17164;48.590;11.410;2023-05-07T09:30:28;2.80;;;1.70;;
30370;SDS011;17164;48.590;11.410;2023-05-07T09:33:01;3.27;;;1.70;;
30370;SDS011;17164;48.590;11.410;2023-05-07T09:35:27;3.00;;;1.87;;
30370;SDS011;17164;48.590;11.410;2023-05-07T09:37:53;4.33;;;2.10;;
30370;SDS011;17164;48.590;11.410;2023-05-07T09:40:24;4.37;;;1.93;;
30370;SDS011;17164;48.590;11.410;2023-05-07T09:42:54;2.63;;;1.80;;
30370;SDS011;17164;48.590;11.410;2023-05-07T09:45:27;2.77;;;1.70;;
30370;SDS011;17164;48.590;11.410;2023-05-07T09:47:54;4.40;;;1.80;;
30370;SDS011;17164;48.590;11.410;2023-05-07T09:50:28;2.17;;;1.40;;
30370;SDS011;17164;48.590;11.410;2023-05-07T09:52:55;3.37;;;1.63;;
30370;SDS011;17164;48.590;11.410;2023-05-07T09:55:22;3.97;;;1.60;;
30370;SDS011;17164;48.590;11.410;2023-05-07T09:57:51;3.63;;;2.17;;
30370;SDS011;17164;48.590;11.410;2023-05-07T10:00:20;4.57;;;2.03;;
30370;SDS011;17164;48.590;11.410;2023-05-07T10:02:50;3.80;;;2.33;;
30370;SDS011;17164;48.590;11.410;2023-05-07T10:05:20;3.93;;;1.80;;
30370;SDS011;17164;48.590;11.410;2023-05-07T10:07:47;3.77;;;1.60;;
30370;SDS011;17164;48.590;11.410;2023-05-07T10:10:13;3.03;;;1.90;;
30370;SDS011;17164;48.590;11.410;2023-05-07T10:12:40;2.57;;;1.87;;
30370;SDS011;17164;48.590;11.410;2023-05-07T10:15:06;4.43;;;2.00;;
30370;SDS011;17164;48.590;11.410;2023-05-07T10:17:39;6.03;;;1.50;;
30370;SDS011;17164;48.590;11.410;2023-05-07T10:20:06;2.53;;;1.30;;
30370;SDS011;17164;48.590;11.410;2023-05-07T10:22:33;5.93;;;1.50;;
30370;SDS011;17164;48.590;11.410;2023-05-07T10:25:04;1.70;;;1.20;;
30370;SDS011;17164;48.590;11.410;2023-05-07T10:27:34;2.73;;;1.40;;
30370;SDS011;17164;48.590;11.410;2023-05-07T10:30:11;1.80;;;1.10;;
30370;SDS011;17164;48.590;11.410;2023-05-07T10:32:45;2.10;;;1.10;;
30370;SDS011;17164;48.590;11.410;2023-05-07T10:35:26;2.10;;;1.10;;
30370;SDS011;17164;48.590;11.410;2023-05-07T10:37:56;3.27;;;1.30;;
30370;SDS011;17164;48.590;11.410;2023-05-07T10:40:22;1.23;;;0.90;;
30370;SDS011;17164;48.590;11.410;2023-05-07T10:45:24;1.37;;;0.90;;
30370;SDS011;17164;48.590;11.410;2023-05-07T10:50:35;1.17;;;0.83;;
30370;SDS011;17164;48.590;11.410;2023-05-07T10:58:46;2.80;;;1.20;;
30370;SDS011;17164;48.590;11.410;2023-05-07T11:01:11;2.17;;;0.90;;
30370;SDS011;17164;48.590;11.410;2023-05-07T11:06:40;2.43;;;1.20;;
30370;SDS011;17164;48.590;11.410;2023-05-07T11:09:05;2.30;;;1.03;;
30370;SDS011;17164;48.590;11.410;2023-05-07T11:11:47;2.80;;;1.23;;
30370;SDS011;17164;48.590;11.410;2023-05-07T11:17:07;1.77;;;1.10;;
30370;SDS011;17164;48.590;11.410;2023-05-07T11:19:47;1.47;;;1.13;;
30370;SDS011;17164;48.590;11.410;2023-05-07T11:24:55;1.33;;;0.87;;
30370;SDS011;17164;48.590;11.410;2023-05-07T11:27:25;1.97;;;1.20;;
30370;SDS011;17164;48.590;11.410;2023-05-07T11:29:51;3.53;;;1.17;;
30370;SDS011;17164;48.590;11.410;2023-05-07T11:32:50;2.53;;;1.20;;
30370;SDS011;17164;48.590;11.410;2023-05-07T11:35:11;4.53;;;1.00;;
30370;SDS011;17164;48.590;11.410;2023-05-07T11:37:38;2.77;;;1.20;;
30370;SDS011;17164;48.590;11.410;2023-05-07T11:40:05;1.77;;;1.00;;
30370;SDS011;17164;48.590;11.410;2023-05-07T11:42:33;1.53;;;0.80;;
30370;SDS011;17164;48.590;11.410;2023-05-07T11:45:01;1.20;;;0.83;;
30370;SDS011;17164;48.590;11.410;2023-05-07T11:47:29;1.67;;;0.97;;
30370;SDS011;17164;48.590;11.410;2023-05-07T11:49:56;2.70;;;1.13;;
30370;SDS011;17164;48.590;11.410;2023-05-07T11:52:22;1.50;;;1.00;;
30370;SDS011;17164;48.590;11.410;2023-05-07T11:54:51;3.47;;;1.23;;
30370;SDS011;17164;48.590;11.410;2023-05-07T11:57:19;3.50;;;1.10;;
30370;SDS011;17164;48.590;11.410;2023-05-07T11:59:45;2.30;;;0.93;;
30370;SDS011;17164;48.590;11.410;2023-05-07T12:02:14;1.87;;;0.83;;
30370;SDS011;17164;48.590;11.410;2023-05-07T12:04:41;2.50;;;1.07;;
30370;SDS011;17164;48.590;11.410;2023-05-07T12:07:16;7.47;;;1.23;;
30370;SDS011;17164;48.590;11.410;2023-05-07T12:09:42;1.30;;;0.90;;
30370;SDS011;17164;48.590;11.410;2023-05-07T12:12:08;3.20;;;0.80;;
30370;SDS011;17164;48.590;11.410;2023-05-07T12:14:37;3.63;;;1.00;;
30370;SDS011;17164;48.590;11.410;2023-05-07T12:17:07;1.67;;;1.00;;
30370;SDS011;17164;48.590;11.410;2023-05-07T12:19:37;3.90;;;1.20;;
30370;SDS011;17164;48.590;11.410;2023-05-07T12:22:04;1.90;;;1.17;;
30370;SDS011;17164;48.590;11.410;2023-05-07T12:24:49;1.87;;;0.93;;
30370;SDS011;17164;48.590;11.410;2023-05-07T12:27:21;1.23;;;0.90;;
30370;SDS011;17164;48.590;11.410;2023-05-07T12:29:47;1.20;;;1.00;;
30370;SDS011;17164;48.590;11.410;2023-05-07T12:32:18;2.20;;;1.23;;
30370;SDS011;17164;48.590;11.410;2023-05-07T12:34:45;3.60;;;1.03;;
30370;SDS011;17164;48.590;11.410;2023-05-07T12:37:10;2.50;;;1.40;;
30370;SDS011;17164;48.590;11.410;2023-05-07T12:39:37;1.50;;;1.03;;
30370;SDS011;17164;48.590;11.410;2023-05-07T12:42:03;1.60;;;0.97;;
30370;SDS011;17164;48.590;11.410;2023-05-07T12:44:29;2.30;;;1.20;;
30370;SDS011;17164;48.590;11.410;2023-05-07T12:47:01;4.07;;;1.17;;
30370;SDS011;17164;48.590;11.410;2023-05-07T12:49:27;1.97;;;0.90;;
30370;SDS011;17164;48.590;11.410;2023-05-07T12:51:53;2.43;;;1.13;;
30370;SDS011;17164;48.590;11.410;2023-05-07T12:57:15;4.83;;;1.30;;
30370;SDS011;17164;48.590;11.410;2023-05-07T12:59:45;1.43;;;1.03;;
30370;SDS011;17164;48.590;11.410;2023-05-07T13:02:11;4.07;;;1.10;;
30370;SDS011;17164;48.590;11.410;2023-05-07T13:04:37;2.27;;;1.00;;
30370;SDS011;17164;48.590;11.410;2023-05-07T13:07:02;1.43;;;1.10;;
30370;SDS011;17164;48.590;11.410;2023-05-07T13:09:28;3.30;;;1.30;;
30370;SDS011;17164;48.590;11.410;2023-05-07T13:11:54;1.40;;;1.00;;
30370;SDS011;17164;48.590;11.410;2023-05-07T13:14:20;2.90;;;1.13;;
30370;SDS011;17164;48.590;11.410;2023-05-07T13:16:46;2.83;;;1.20;;
30370;SDS011;17164;48.590;11.410;2023-05-07T13:19:12;3.03;;;1.20;;
30370;SDS011;17164;48.590;11.410;2023-05-07T13:21:38;1.87;;;1.03;;
30370;SDS011;17164;48.590;11.410;2023-05-07T13:24:03;1.17;;;1.07;;
30370;SDS011;17164;48.590;11.410;2023-05-07T13:26:30;3.00;;;1.20;;
30370;SDS011;17164;48.590;11.410;2023-05-07T13:28:56;2.53;;;1.20;;
30370;SDS011;17164;48.590;11.410;2023-05-07T13:31:21;1.30;;;0.93;;
30370;SDS011;17164;48.590;11.410;2023-05-07T13:33:47;2.53;;;1.20;;
30370;SDS011;17164;48.590;11.410;2023-05-07T13:36:13;2.60;;;1.23;;
30370;SDS011;17164;48.590;11.410;2023-05-07T13:38:39;2.27;;;1.30;;
30370;SDS011;17164;48.590;11.410;2023-05-07T13:41:05;1.90;;;0.93;;
30370;SDS011;17164;48.590;11.410;2023-05-07T13:43:31;3.27;;;1.13;;
30370;SDS011;17164;48.590;11.410;2023-05-07T13:45:58;6.43;;;1.93;;
30370;SDS011;17164;48.590;11.410;2023-05-07T13:48:24;1.47;;;0.93;;
30370;SDS011;17164;48.590;11.410;2023-05-07T13:50:50;3.10;;;1.30;;
30370;SDS011;17164;48.590;11.410;2023-05-07T13:53:16;4.20;;;1.07;;
30370;SDS011;17164;48.590;11.410;2023-05-07T13:55:43;3.13;;;1.00;;
30370;SDS011;17164;48.590;11.410;2023-05-07T13:58:09;1.57;;;1.00;;
30370;SDS011;17164;48.590;11.410;2023-05-07T14:00:35;1.77;;;1.10;;
30370;SDS011;17164;48.590;11.410;2023-05-07T14:03:01;1.37;;;1.00;;
30370;SDS011;17164;48.590;11.410;2023-05-07T14:05:26;3.93;;;1.00;;
30370;SDS011;17164;48.590;11.410;2023-05-07T14:07:56;6.80;;;1.10;;
30370;SDS011;17164;48.590;11.410;2023-05-07T14:10:22;2.93;;;1.40;;
30370;SDS011;17164;48.590;11.410;2023-05-07T14:12:48;1.80;;;1.10;;
30370;SDS011;17164;48.590;11.410;2023-05-07T14:15:14;1.83;;;1.00;;
30370;SDS011;17164;48.590;11.410;2023-05-07T14:17:39;2.13;;;1.07;;
30370;SDS011;17164;48.590;11.410;2023-05-07T14:20:05;1.10;;;0.83;;
30370;SDS011;17164;48.590;11.410;2023-05-07T14:22:31;1.40;;;0.90;;
30370;SDS011;17164;48.590;11.410;2023-05-07T14:24:57;1.30;;;0.90;;
30370;SDS011;17164;48.590;11.410;2023-05-07T14:27:23;2.43;;;1.10;;
30370;SDS011;17164;48.590;11.410;2023-05-07T14:29:48;1.90;;;0.93;;
30370;SDS011;17164;48.590;11.410;2023-05-07T14:32:16;3.43;;;1.33;;
30370;SDS011;17164;48.590;11.410;2023-05-07T14:34:43;3.40;;;1.23;;
30370;SDS011;17164;48.590;11.410;2023-05-07T14:37:09;2.60;;;1.07;;
30370;SDS011;17164;48.590;11.410;2023-05-07T14:39:35;2.70;;;1.20;;
30370;SDS011;17164;48.590;11.410;2023-05-07T14:42:00;2.73;;;1.10;;
30370;SDS011;17164;48.590;11.410;2023-05-07T14:44:27;1.90;;;1.20;;
30370;SDS011;17164;48.590;11.410;2023-05-07T14:46:53;3.33;;;1.27;;
30370;SDS011;17164;48.590;11.410;2023-05-07T14:49:19;3.73;;;1.03;;
30370;SDS011;17164;48.590;11.410;2023-05-07T14:51:45;1.60;;;1.10;;